Time;durP1;ratioP1;P1;durP2;ratioP2;P2;SDS_P1;SDS_P2;PMS_P1;PMS_P2;Temp;Humidity;BMP_temperature;BMP_pressure;BME280_temperature;BME280_humidity;BME280_pressure;Samples;Min_cycle;Max_cycle;Signal;HPM_P1;HPM_P2
2022/06/02 00:01:22;;;;;;;1.50;1.40;;;14.80;94.60;;;;;;5070756;28;20458;-70
2022/06/02 00:03:57;;;;;;;1.60;1.43;;;14.80;94.50;;;;;;5070262;28;20510;-69
2022/06/02 00:06:37;;;;;;;1.83;1.30;;;14.80;94.60;;;;;;5070732;28;20458;-70
2022/06/02 00:09:15;;;;;;;2.03;1.50;;;14.70;94.70;;;;;;5069629;28;20450;-69
2022/06/02 00:11:55;;;;;;;3.20;1.50;;;14.70;94.70;;;;;;5070351;28;20490;-69
2022/06/02 00:14:26;;;;;;;2.00;1.60;;;14.70;94.90;;;;;;5070216;28;20987;-70
2022/06/02 00:17:02;;;;;;;1.60;1.40;;;14.60;95.00;;;;;;5070181;28;20565;-70
2022/06/02 00:19:41;;;;;;;1.97;1.87;;;14.70;95.10;;;;;;5071011;28;20527;-69
2022/06/02 00:22:17;;;;;;;2.10;1.90;;;14.60;95.00;;;;;;5074193;28;20632;-69
2022/06/02 00:24:54;;;;;;;1.60;1.30;;;14.50;94.90;;;;;;5074230;28;20470;-70
2022/06/02 00:27:27;;;;;;;4.50;1.70;;;14.50;94.80;;;;;;5074119;28;20527;-69
2022/06/02 00:30:04;;;;;;;1.73;1.63;;;14.50;94.90;;;;;;5073634;28;20481;-69
2022/06/02 00:32:39;;;;;;;1.63;1.53;;;14.50;95.00;;;;;;5073811;28;20477;-69
2022/06/02 00:35:30;;;;;;;1.73;1.30;;;14.50;95.10;;;;;;5074212;28;20461;-69
2022/06/02 00:38:02;;;;;;;1.70;1.50;;;14.50;94.90;;;;;;5073343;28;20997;-69
2022/06/02 00:40:33;;;;;;;2.17;1.27;;;14.40;95.00;;;;;;5073996;28;20537;-69
2022/06/02 00:43:30;;;;;;;1.40;1.30;;;14.40;95.00;;;;;;5073675;28;20486;-69
2022/06/02 00:46:05;;;;;;;1.40;1.30;;;14.40;95.00;;;;;;5073962;28;20465;-69
2022/06/02 00:48:46;;;;;;;1.47;1.37;;;14.40;94.90;;;;;;5072978;28;20949;-69
2022/06/02 00:51:16;;;;;;;1.60;1.50;;;14.40;94.70;;;;;;5073720;28;20458;-69
2022/06/02 00:59:42;;;;;;;2.13;1.73;;;14.40;94.90;;;;;;5072901;28;20540;-69
2022/06/02 01:02:09;;;;;;;1.90;1.40;;;14.40;95.30;;;;;;5073243;28;20458;-69
2022/06/02 01:04:39;;;;;;;2.07;1.33;;;14.40;95.30;;;;;;5073307;28;20548;-69
2022/06/02 01:07:16;;;;;;;1.60;1.50;;;14.30;95.00;;;;;;5073366;28;20458;-69
2022/06/02 01:10:00;;;;;;;1.90;1.70;;;14.20;95.10;;;;;;5072873;28;20465;-69
2022/06/02 01:12:42;;;;;;;2.60;1.60;;;14.20;95.20;;;;;;5072135;28;20485;-70
2022/06/02 01:15:21;;;;;;;1.50;1.40;;;14.20;95.30;;;;;;5051200;28;20459;-70
2022/06/02 01:17:59;;;;;;;2.07;1.40;;;14.30;95.20;;;;;;5052770;28;20629;-69
2022/06/02 01:20:47;;;;;;;3.33;1.73;;;14.20;95.20;;;;;;5053085;28;20459;-69
2022/06/02 01:23:41;;;;;;;1.83;1.70;;;14.30;95.10;;;;;;5053109;28;20483;-69
2022/06/02 01:26:36;;;;;;;2.70;1.53;;;14.20;95.40;;;;;;5053115;28;20459;-70
2022/06/02 01:29:27;;;;;;;4.20;1.40;;;14.20;95.60;;;;;;5052686;28;20546;-70
2022/06/02 01:32:00;;;;;;;3.67;1.40;;;14.20;95.40;;;;;;5050375;28;20983;-69
2022/06/02 01:34:37;;;;;;;1.50;1.40;;;14.20;95.50;;;;;;5052901;28;20810;-69
2022/06/02 01:37:14;;;;;;;2.17;1.70;;;14.10;95.60;;;;;;5052671;28;20491;-69
2022/06/02 01:40:00;;;;;;;3.30;2.00;;;14.10;95.30;;;;;;5052270;28;20463;-69
2022/06/02 01:42:37;;;;;;;1.70;1.40;;;14.10;95.60;;;;;;5052523;28;20479;-69
2022/06/02 01:45:11;;;;;;;1.77;1.67;;;14.10;95.80;;;;;;5052942;28;20546;-69
2022/06/02 01:47:41;;;;;;;1.87;1.63;;;14.10;95.70;;;;;;5052718;28;20553;-69
2022/06/02 01:50:32;;;;;;;2.00;1.50;;;14.10;96.30;;;;;;5052154;28;20836;-69
2022/06/02 01:53:08;;;;;;;2.67;2.47;;;14.10;96.10;;;;;;5052448;28;20491;-69
2022/06/02 01:55:53;;;;;;;3.30;2.47;;;14.10;96.30;;;;;;5052646;28;20592;-69
2022/06/02 01:58:35;;;;;;;3.40;1.70;;;14.00;96.10;;;;;;5051888;28;20819;-69
2022/06/02 02:01:10;;;;;;;1.70;1.50;;;14.00;96.20;;;;;;5052696;28;20840;-69
2022/06/02 02:03:55;;;;;;;2.87;1.60;;;14.00;95.80;;;;;;5052272;28;20483;-69
2022/06/02 02:06:33;;;;;;;1.73;1.50;;;14.00;96.20;;;;;;5052193;28;20467;-69
2022/06/02 02:09:11;;;;;;;1.60;1.20;;;14.00;96.30;;;;;;5051966;28;20553;-69
2022/06/02 02:11:48;;;;;;;3.00;1.57;;;13.90;96.50;;;;;;5051992;28;20833;-69
2022/06/02 02:14:36;;;;;;;2.70;1.60;;;13.90;96.30;;;;;;5052197;28;20483;-70
2022/06/02 02:17:14;;;;;;;2.63;1.40;;;13.90;96.30;;;;;;5051949;28;20487;-70
2022/06/02 02:19:53;;;;;;;2.50;1.80;;;13.90;96.80;;;;;;5051452;28;20824;-69
2022/06/02 02:22:35;;;;;;;2.27;1.80;;;13.80;96.60;;;;;;5051883;28;21033;-69
2022/06/02 02:25:13;;;;;;;1.93;1.60;;;13.70;96.50;;;;;;5052223;28;20839;-69
2022/06/02 02:28:05;;;;;;;5.10;1.90;;;13.70;96.60;;;;;;5051719;28;20461;-69
2022/06/02 02:30:42;;;;;;;1.80;1.50;;;13.70;96.90;;;;;;5052016;28;20459;-69
2022/06/02 02:33:22;;;;;;;2.40;1.80;;;13.60;97.40;;;;;;5051834;28;20490;-70
2022/06/02 02:36:01;;;;;;;1.60;1.50;;;13.60;97.10;;;;;;5051979;28;20459;-69
2022/06/02 02:38:36;;;;;;;3.20;2.10;;;13.50;96.90;;;;;;5051236;28;20533;-69
2022/06/02 02:41:06;;;;;;;1.83;1.50;;;13.50;96.90;;;;;;5051720;28;20463;-70
2022/06/02 02:43:38;;;;;;;2.37;1.80;;;13.50;97.20;;;;;;5050457;28;20486;-70
2022/06/02 02:46:10;;;;;;;2.80;1.37;;;13.40;97.40;;;;;;5051597;28;20463;-69
2022/06/02 02:48:44;;;;;;;1.60;1.50;;;13.40;97.30;;;;;;5051086;28;20824;-69
2022/06/02 02:51:18;;;;;;;1.93;1.70;;;13.40;97.60;;;;;;5051418;28;20835;-69
2022/06/02 02:53:50;;;;;;;2.00;1.80;;;13.30;97.60;;;;;;5051319;28;20475;-69
2022/06/02 02:56:23;;;;;;;3.60;3.00;;;13.30;97.70;;;;;;5051247;28;20467;-69
2022/06/02 02:58:58;;;;;;;2.07;1.80;;;13.30;97.90;;;;;;5050706;28;20480;-69
2022/06/02 03:01:35;;;;;;;2.53;1.77;;;13.30;98.00;;;;;;5051429;28;20823;-69
2022/06/02 03:04:14;;;;;;;2.03;1.63;;;13.30;98.10;;;;;;5051211;28;20490;-69
2022/06/02 03:06:43;;;;;;;1.93;1.83;;;13.30;98.10;;;;;;5051243;28;20463;-69
2022/06/02 03:09:13;;;;;;;1.80;1.70;;;13.20;98.40;;;;;;5050512;28;20835;-69
2022/06/02 03:11:56;;;;;;;3.67;1.70;;;13.20;97.80;;;;;;5051085;28;20463;-69
2022/06/02 03:14:34;;;;;;;1.70;1.50;;;13.20;98.10;;;;;;5093405;22;20445;-92
2022/06/02 03:17:08;;;;;;;2.40;1.63;;;13.20;98.00;;;;;;5045732;28;20558;-92
2022/06/02 03:19:45;;;;;;;3.20;2.00;;;13.20;98.40;;;;;;5036023;28;20463;-90
2022/06/02 03:22:30;;;;;;;2.43;1.70;;;13.10;98.20;;;;;;5037494;28;20455;-91
2022/06/02 03:25:07;;;;;;;1.70;1.60;;;13.10;98.00;;;;;;5039108;28;20484;-91
2022/06/02 03:27:44;;;;;;;2.33;1.57;;;13.10;98.60;;;;;;5037321;28;20551;-91
2022/06/02 03:30:20;;;;;;;2.23;1.67;;;13.10;98.00;;;;;;5034949;28;20472;-93
2022/06/02 03:33:10;;;;;;;2.57;2.00;;;13.10;98.50;;;;;;5039869;28;20459;-91
2022/06/02 03:35:45;;;;;;;1.70;1.60;;;13.10;98.80;;;;;;5048597;28;20480;-93
2022/06/02 03:38:27;;;;;;;2.47;1.83;;;13.10;98.90;;;;;;5053568;28;20988;-94
2022/06/02 03:41:40;;;;;;;3.27;1.77;;;13.10;99.00;;;;;;5055796;28;20460;-94
2022/06/02 03:44:16;;;;;;;1.73;1.57;;;13.10;99.20;;;;;;5055535;28;20886;-92
2022/06/02 03:47:00;;;;;;;1.97;1.83;;;13.00;99.30;;;;;;5044022;28;20489;-94
2022/06/02 03:50:02;;;;;;;2.87;2.00;;;13.00;98.90;;;;;;5043300;28;20457;-93
2022/06/02 03:52:53;;;;;;;2.97;2.00;;;13.00;99.00;;;;;;5022618;28;20513;-92
2022/06/02 03:55:39;;;;;;;1.73;1.57;;;13.00;99.60;;;;;;5023995;28;20215;-90
2022/06/02 03:58:21;;;;;;;2.00;1.90;;;13.00;98.80;;;;;;5016946;28;20941;-90
2022/06/02 04:00:51;;;;;;;3.40;1.70;;;13.00;99.10;;;;;;5014664;28;20552;-90
2022/06/02 04:03:46;;;;;;;2.80;1.57;;;13.00;98.70;;;;;;5013913;28;20465;-91
2022/06/02 04:06:33;;;;;;;2.57;1.40;;;13.00;99.10;;;;;;5022484;28;20909;-91
2022/06/02 04:09:18;;;;;;;1.97;1.80;;;13.00;99.00;;;;;;5021641;28;20460;-91
2022/06/02 04:15:02;;;;;;;3.70;2.20;;;13.00;99.20;;;;;;4993007;28;20535;-91
2022/06/02 04:17:38;;;;;;;2.07;1.80;;;13.00;99.60;;;;;;5024916;28;20452;-92
2022/06/02 04:20:41;;;;;;;1.97;1.50;;;13.00;99.30;;;;;;5026158;28;20484;-91
2022/06/02 04:23:48;;;;;;;2.73;2.20;;;13.10;98.80;;;;;;5025120;28;20461;-92
2022/06/02 04:26:30;;;;;;;2.10;1.90;;;13.10;99.30;;;;;;5023839;28;20486;-92
2022/06/02 04:29:12;;;;;;;2.03;1.77;;;13.10;99.50;;;;;;5034147;28;20463;-92
2022/06/02 04:31:55;;;;;;;2.53;2.33;;;13.10;99.60;;;;;;5022638;28;20456;-92
2022/06/02 04:34:31;;;;;;;3.00;2.30;;;13.10;99.90;;;;;;5013925;28;20496;-91
2022/06/02 04:37:20;;;;;;;3.93;1.63;;;13.10;99.90;;;;;;5015585;28;20533;-92
2022/06/02 04:39:58;;;;;;;1.93;1.70;;;13.10;99.90;;;;;;5017505;28;20457;-91
2022/06/02 04:42:33;;;;;;;3.10;2.07;;;13.10;99.90;;;;;;5019046;28;20571;-91
2022/06/02 04:45:11;;;;;;;3.53;1.73;;;13.10;99.90;;;;;;5018447;28;20480;-92
2022/06/02 04:47:50;;;;;;;1.90;1.70;;;13.10;99.90;;;;;;5019221;28;20547;-91
2022/06/02 04:50:24;;;;;;;1.97;1.77;;;13.10;99.90;;;;;;5014199;28;20504;-91
2022/06/02 04:53:00;;;;;;;2.53;2.30;;;13.10;99.90;;;;;;5014013;28;20453;-91
2022/06/02 04:55:36;;;;;;;2.17;1.97;;;13.10;99.90;;;;;;5021952;28;20481;-92
2022/06/02 04:58:12;;;;;;;1.80;1.70;;;13.10;99.90;;;;;;5017559;28;21013;-90
2022/06/02 05:00:48;;;;;;;2.10;1.90;;;13.20;99.90;;;;;;5016037;28;20472;-90
2022/06/02 05:03:23;;;;;;;2.57;2.20;;;13.20;99.90;;;;;;5018840;28;20464;-90
2022/06/02 05:05:59;;;;;;;3.10;2.20;;;13.20;99.90;;;;;;5021818;28;20479;-91
2022/06/02 05:11:56;;;;;;;2.63;1.80;;;13.20;99.90;;;;;;5016714;28;20448;-91
2022/06/02 05:14:31;;;;;;;2.37;1.80;;;13.20;99.90;;;;;;5017025;28;20483;-91
2022/06/02 05:17:14;;;;;;;2.23;2.03;;;13.30;99.90;;;;;;5017292;28;20526;-90
2022/06/02 05:20:01;;;;;;;2.53;2.13;;;13.30;99.90;;;;;;5016852;28;20496;-91
2022/06/02 05:22:56;;;;;;;7.53;2.40;;;13.30;99.40;;;;;;5017239;28;20830;-90
2022/06/02 05:26:02;;;;;;;2.13;1.97;;;13.40;99.00;;;;;;4965838;29;20487;-91
2022/06/02 05:28:56;;;;;;;3.10;1.80;;;13.40;98.70;;;;;;5028481;28;20481;-94
2022/06/02 05:31:48;;;;;;;4.03;1.97;;;13.50;98.50;;;;;;5028828;28;20563;-93
2022/06/02 05:34:35;;;;;;;2.47;1.90;;;13.60;98.20;;;;;;5022904;28;20483;-93
2022/06/02 05:37:15;;;;;;;3.37;2.03;;;13.70;97.80;;;;;;5017848;28;20516;-93
2022/06/02 05:40:01;;;;;;;2.43;1.90;;;13.80;98.10;;;;;;5015195;28;20485;-90
2022/06/02 05:42:37;;;;;;;3.97;2.43;;;13.80;98.10;;;;;;5015356;28;20461;-92
2022/06/02 05:45:17;;;;;;;2.00;1.80;;;13.80;98.00;;;;;;5015659;28;20496;-90
2022/06/02 05:48:02;;;;;;;2.67;1.90;;;13.90;97.60;;;;;;5019819;28;20461;-91
2022/06/02 05:50:39;;;;;;;2.43;1.90;;;13.90;96.90;;;;;;5021673;28;20549;-92
2022/06/02 05:53:20;;;;;;;3.00;2.70;;;14.00;97.00;;;;;;5031831;28;20473;-92
2022/06/02 05:55:58;;;;;;;2.60;2.33;;;14.00;97.30;;;;;;5017320;28;20468;-91
2022/06/02 05:58:52;;;;;;;2.73;2.00;;;14.00;96.40;;;;;;5014290;28;20480;-91
2022/06/02 06:01:30;;;;;;;1.90;1.77;;;14.20;96.90;;;;;;5014916;28;20911;-91
2022/06/02 06:04:25;;;;;;;2.20;1.87;;;14.30;97.10;;;;;;5016619;28;20569;-92
2022/06/02 06:06:57;;;;;;;2.67;1.70;;;14.40;96.70;;;;;;5028242;28;20480;-91
2022/06/02 06:09:35;;;;;;;4.63;2.33;;;14.50;96.10;;;;;;5039580;28;20467;-94
2022/06/02 06:12:36;;;;;;;3.30;1.97;;;14.60;95.80;;;;;;5055673;28;20445;-91
2022/06/02 06:15:10;;;;;;;3.40;2.30;;;14.70;96.20;;;;;;5033510;28;20542;-93
2022/06/02 06:17:48;;;;;;;2.53;2.10;;;14.70;95.90;;;;;;5033523;28;20530;-90
2022/06/02 06:20:33;;;;;;;2.40;2.20;;;14.60;95.40;;;;;;5032470;28;21014;-90
2022/06/02 06:23:22;;;;;;;3.73;2.30;;;14.60;95.70;;;;;;5033639;28;20464;-91
2022/06/02 06:26:07;;;;;;;3.00;2.07;;;14.70;96.60;;;;;;5035336;28;20491;-92
2022/06/02 06:28:40;;;;;;;2.80;2.00;;;14.70;96.30;;;;;;5045594;28;20453;-94
2022/06/02 06:31:18;;;;;;;2.30;2.10;;;14.70;96.10;;;;;;5049216;28;20449;-93
2022/06/02 06:33:58;;;;;;;1.87;1.77;;;14.80;96.70;;;;;;5044456;28;20464;-93
2022/06/02 06:36:46;;;;;;;2.00;1.80;;;14.90;96.40;;;;;;5046233;28;20430;-94
2022/06/02 06:39:26;;;;;;;2.27;1.93;;;15.10;96.70;;;;;;5043886;28;20985;-94
2022/06/02 06:42:10;;;;;;;2.20;2.00;;;15.10;96.60;;;;;;5041601;28;20464;-93
2022/06/02 06:44:40;;;;;;;1.97;1.70;;;15.20;96.50;;;;;;5039304;28;20582;-92
2022/06/02 06:47:14;;;;;;;4.77;1.90;;;15.30;96.10;;;;;;5038460;28;20455;-92
2022/06/02 06:49:58;;;;;;;2.20;2.00;;;15.40;95.60;;;;;;5039218;28;20551;-92
2022/06/02 06:52:58;;;;;;;3.10;2.07;;;15.50;95.10;;;;;;5036579;28;20530;-93
2022/06/02 06:55:49;;;;;;;3.50;2.10;;;15.50;95.10;;;;;;5031713;28;20531;-92
2022/06/02 06:58:25;;;;;;;2.37;2.17;;;15.60;94.80;;;;;;5029907;28;20463;-92
2022/06/02 07:01:00;;;;;;;2.20;1.83;;;15.60;95.30;;;;;;5035553;28;20459;-92
2022/06/02 07:03:40;;;;;;;3.60;2.20;;;15.70;95.40;;;;;;5033785;28;20522;-91
2022/06/02 07:06:17;;;;;;;2.80;2.20;;;15.80;95.30;;;;;;5036005;28;20484;-92
2022/06/02 07:08:51;;;;;;;4.83;2.07;;;15.80;95.40;;;;;;5039621;28;20488;-93
2022/06/02 07:14:21;;;;;;;2.47;1.90;;;16.00;95.20;;;;;;5035675;28;20499;-91
2022/06/02 07:16:55;;;;;;;2.90;2.07;;;16.10;95.00;;;;;;5034842;28;20468;-92
2022/06/02 07:19:28;;;;;;;3.03;2.43;;;16.20;95.80;;;;;;5035861;28;20478;-92
2022/06/02 07:22:02;;;;;;;2.07;1.80;;;16.30;96.20;;;;;;5037388;28;20464;-92
2022/06/02 07:24:39;;;;;;;4.90;2.37;;;16.30;95.40;;;;;;5034992;28;20834;-92
2022/06/02 07:27:16;;;;;;;3.67;2.10;;;16.40;95.20;;;;;;5035518;28;20444;-92
2022/06/02 07:29:54;;;;;;;6.63;2.57;;;16.40;95.20;;;;;;5021711;28;20480;-94
2022/06/02 07:33:06;;;;;;;2.10;1.90;;;16.50;95.20;;;;;;5051282;28;20444;-92
2022/06/02 07:35:52;;;;;;;3.13;2.07;;;16.50;94.70;;;;;;5035441;28;21100;-92
2022/06/02 07:38:33;;;;;;;6.50;2.30;;;16.40;94.50;;;;;;5034269;28;20479;-93
2022/06/02 07:41:28;;;;;;;3.20;2.10;;;16.40;95.10;;;;;;5034659;28;20460;-93
2022/06/02 07:44:28;;;;;;;2.33;2.10;;;16.50;95.50;;;;;;5038796;28;20487;-93
2022/06/02 07:50:01;;;;;;;3.20;1.93;;;16.70;96.20;;;;;;5088242;28;20469;-73
2022/06/02 07:52:36;;;;;;;2.20;2.00;;;16.80;96.00;;;;;;5090845;28;20484;-73
2022/06/02 07:55:13;;;;;;;3.50;1.73;;;16.90;95.70;;;;;;5090449;28;20976;-73
2022/06/02 07:57:51;;;;;;;4.53;2.00;;;17.00;95.30;;;;;;5090823;28;21133;-73
2022/06/02 08:00:21;;;;;;;2.30;2.00;;;17.10;95.40;;;;;;5089890;28;21029;-73
2022/06/02 08:03:24;;;;;;;5.67;2.40;;;17.20;95.60;;;;;;5091103;28;20827;-73
2022/06/02 08:05:59;;;;;;;5.90;2.07;;;17.20;94.80;;;;;;5090429;28;20476;-73
2022/06/02 08:08:30;;;;;;;1.80;1.67;;;17.30;94.70;;;;;;5090426;28;20797;-74
2022/06/02 08:11:28;;;;;;;3.53;1.70;;;17.40;94.20;;;;;;5089976;28;20468;-74
2022/06/02 08:14:06;;;;;;;4.00;1.97;;;17.50;95.60;;;;;;5090672;28;20878;-74
2022/06/02 08:16:50;;;;;;;3.50;2.10;;;17.70;94.90;;;;;;5090513;28;20971;-74
2022/06/02 08:19:28;;;;;;;3.53;2.20;;;17.80;94.40;;;;;;5089743;28;20481;-74
2022/06/02 08:21:58;;;;;;;2.50;1.90;;;17.90;95.50;;;;;;5090496;28;20469;-74
2022/06/02 08:24:34;;;;;;;2.60;2.03;;;18.00;93.70;;;;;;5090823;28;20839;-73
2022/06/02 08:27:33;;;;;;;3.80;2.20;;;18.10;94.20;;;;;;5090157;28;20468;-73
2022/06/02 08:30:08;;;;;;;2.70;2.13;;;18.30;94.00;;;;;;5089847;28;20928;-73
2022/06/02 08:32:52;;;;;;;2.73;2.20;;;18.30;91.80;;;;;;5090635;28;20477;-73
2022/06/02 08:35:25;;;;;;;2.40;2.00;;;18.20;93.60;;;;;;5090376;28;20468;-73
2022/06/02 08:38:10;;;;;;;4.40;2.13;;;18.30;94.00;;;;;;5090237;28;20457;-73
2022/06/02 08:44:24;;;;;;;3.10;2.03;;;18.50;93.20;;;;;;5093942;28;20552;-73
2022/06/02 08:47:23;;;;;;;3.40;2.40;;;18.50;93.00;;;;;;5094270;28;20960;-73
2022/06/02 08:50:20;;;;;;;3.77;2.40;;;18.60;94.10;;;;;;5079696;28;20453;-73
2022/06/02 08:53:15;;;;;;;3.47;2.17;;;18.70;95.00;;;;;;5094003;28;20512;-73
2022/06/02 08:56:13;;;;;;;2.37;1.83;;;18.90;93.50;;;;;;5093919;28;21002;-73
2022/06/02 08:59:13;;;;;;;3.60;3.20;;;19.10;93.90;;;;;;5090838;28;20506;-73
2022/06/02 09:02:03;;;;;;;2.27;1.80;;;19.20;93.90;;;;;;5094270;28;20852;-73
2022/06/02 09:05:04;;;;;;;3.17;1.80;;;19.40;94.60;;;;;;5094013;28;20832;-73
2022/06/02 09:08:06;;;;;;;2.50;1.60;;;19.50;92.70;;;;;;5094201;28;21105;-74
2022/06/02 09:10:45;;;;;;;2.50;1.63;;;19.70;94.20;;;;;;5093764;28;20489;-73
2022/06/02 09:13:47;;;;;;;2.50;1.90;;;19.80;92.60;;;;;;5093964;28;21007;-73
2022/06/02 09:19:18;;;;;;;2.93;1.73;;;20.00;93.60;;;;;;5059780;28;20826;-68
2022/06/02 09:22:00;;;;;;;4.97;2.43;;;20.10;92.80;;;;;;5017200;28;20839;-67
2022/06/02 09:24:33;;;;;;;3.40;2.23;;;20.20;91.30;;;;;;5033004;28;20797;-68
2022/06/02 09:27:34;;;;;;;2.73;1.90;;;20.30;93.60;;;;;;5032814;28;20456;-68
2022/06/02 09:30:04;;;;;;;4.23;1.90;;;20.40;92.40;;;;;;5032252;28;20506;-67
2022/06/02 09:32:54;;;;;;;2.70;1.83;;;20.40;92.10;;;;;;5032729;28;20487;-68
2022/06/02 09:35:23;;;;;;;2.80;1.67;;;20.50;92.20;;;;;;5020808;28;20845;-68
2022/06/02 09:38:27;;;;;;;2.23;2.03;;;20.50;90.50;;;;;;5032376;28;20464;-68
2022/06/02 09:41:13;;;;;;;2.73;1.77;;;20.60;92.70;;;;;;5032678;28;20490;-68
2022/06/02 09:44:03;;;;;;;1.97;1.77;;;20.90;92.80;;;;;;5032390;28;20484;-67
2022/06/02 09:47:09;;;;;;;1.83;1.73;;;20.90;89.90;;;;;;5032903;28;20496;-68
2022/06/02 09:50:12;;;;;;;1.93;1.47;;;20.90;92.20;;;;;;5031717;28;20487;-68
2022/06/02 09:53:05;;;;;;;2.77;2.10;;;21.00;91.90;;;;;;5032320;28;20486;-68
2022/06/02 09:55:41;;;;;;;2.43;2.07;;;21.10;92.40;;;;;;5032519;28;20475;-68
2022/06/02 09:58:35;;;;;;;5.53;2.17;;;21.30;92.00;;;;;;5031729;28;20842;-68
2022/06/02 10:01:14;;;;;;;5.07;2.00;;;21.50;93.30;;;;;;5032137;28;20999;-69
2022/06/02 10:03:58;;;;;;;2.30;1.87;;;21.70;92.50;;;;;;5032333;28;20827;-69
2022/06/02 10:06:53;;;;;;;3.40;2.00;;;21.90;92.70;;;;;;5032167;28;20490;-69
2022/06/02 10:09:28;;;;;;;1.80;1.70;;;21.90;91.50;;;;;;5031478;28;20464;-69
2022/06/02 10:15:14;;;;;;;4.90;2.10;;;22.10;92.60;;;;;;5031906;28;20531;-68
2022/06/02 10:17:58;;;;;;;2.27;2.07;;;22.20;92.60;;;;;;5020621;28;20465;-68
2022/06/02 10:20:59;;;;;;;2.53;2.03;;;22.30;93.20;;;;;;5012099;28;20485;-68
2022/06/02 10:23:58;;;;;;;3.57;2.07;;;22.40;91.60;;;;;;5011769;28;21034;-69
2022/06/02 10:26:37;;;;;;;1.80;1.70;;;22.40;90.70;;;;;;5011935;28;20832;-69
2022/06/02 10:29:48;;;;;;;1.83;1.73;;;22.40;91.40;;;;;;5011338;28;20824;-68
2022/06/02 10:32:42;;;;;;;1.87;1.77;;;22.60;92.30;;;;;;5011652;28;20544;-69
2022/06/02 10:35:59;;;;;;;1.67;1.57;;;22.70;92.40;;;;;;5012041;28;20472;-69
2022/06/02 10:38:28;;;;;;;1.80;1.70;;;23.10;92.40;;;;;;5011264;28;20952;-69
2022/06/02 10:41:11;;;;;;;2.83;1.77;;;23.10;90.00;;;;;;5012095;28;20492;-68
2022/06/02 10:44:02;;;;;;;3.67;2.00;;;23.20;91.80;;;;;;5011895;28;20879;-68
2022/06/02 10:47:07;;;;;;;1.73;1.60;;;23.20;90.70;;;;;;5011974;28;20482;-68
2022/06/02 10:49:54;;;;;;;2.70;2.10;;;23.30;91.20;;;;;;5012011;28;20463;-68
2022/06/02 10:52:54;;;;;;;1.80;1.70;;;23.30;90.90;;;;;;5011344;28;20514;-68
2022/06/02 10:55:54;;;;;;;2.90;1.77;;;23.40;91.30;;;;;;5011452;28;20476;-68
2022/06/02 10:58:54;;;;;;;3.00;1.53;;;23.50;91.80;;;;;;5010835;28;20465;-68
2022/06/02 11:02:02;;;;;;;2.90;2.00;;;23.70;91.20;;;;;;5009721;28;20529;-68
2022/06/02 11:05:02;;;;;;;3.27;2.30;;;23.70;91.20;;;;;;5010585;28;20461;-68
2022/06/02 11:08:15;;;;;;;2.27;1.93;;;23.80;91.50;;;;;;5011602;28;20461;-68
2022/06/02 11:11:01;;;;;;;3.70;2.30;;;23.90;90.50;;;;;;5011610;28;20464;-68
2022/06/02 11:13:57;;;;;;;3.10;2.13;;;23.90;88.30;;;;;;5011279;28;20858;-69
2022/06/02 11:16:57;;;;;;;3.93;2.00;;;23.90;90.00;;;;;;5010964;28;20472;-68
2022/06/02 11:20:01;;;;;;;2.83;1.80;;;24.00;91.20;;;;;;5010329;28;20475;-68
2022/06/02 11:23:07;;;;;;;2.00;1.77;;;24.30;91.60;;;;;;5011322;28;20515;-68
2022/06/02 11:26:26;;;;;;;2.10;1.83;;;24.50;91.40;;;;;;5011136;28;20819;-67
2022/06/02 11:29:26;;;;;;;2.80;2.03;;;24.60;89.50;;;;;;5010783;28;20461;-66
2022/06/02 11:32:12;;;;;;;1.50;1.40;;;24.60;90.60;;;;;;4997272;28;21039;-67
2022/06/02 11:35:06;;;;;;;3.60;1.80;;;24.70;91.70;;;;;;5010124;28;20475;-67
2022/06/02 11:38:05;;;;;;;2.00;1.80;;;24.80;87.20;;;;;;5010739;28;20952;-67
2022/06/02 11:40:54;;;;;;;2.93;1.70;;;24.70;89.40;;;;;;5010812;28;20866;-67
2022/06/02 11:43:35;;;;;;;3.10;1.70;;;24.80;88.30;;;;;;5010405;28;20988;-67
2022/06/02 11:46:32;;;;;;;1.80;1.70;;;24.90;88.50;;;;;;5010845;28;20461;-67
2022/06/02 11:49:41;;;;;;;2.77;1.60;;;24.80;89.30;;;;;;5010139;28;20461;-67
2022/06/02 11:52:31;;;;;;;2.93;2.30;;;24.70;89.40;;;;;;5010609;28;20810;-67
2022/06/02 11:55:24;;;;;;;2.53;2.10;;;24.80;91.40;;;;;;5010587;28;20568;-67
2022/06/02 11:58:24;;;;;;;3.20;2.00;;;24.80;87.10;;;;;;5010325;28;20556;-68
2022/06/02 12:01:12;;;;;;;6.50;1.80;;;24.70;89.50;;;;;;4986780;28;20551;-68
2022/06/02 12:04:04;;;;;;;4.30;2.10;;;24.70;91.00;;;;;;5010636;28;20481;-68
2022/06/02 12:07:02;;;;;;;2.03;1.87;;;24.70;86.80;;;;;;4980323;28;20497;-68
2022/06/02 12:09:49;;;;;;;2.87;2.30;;;24.70;90.00;;;;;;4977303;28;20465;-68
2022/06/02 12:12:46;;;;;;;2.77;2.20;;;24.80;89.70;;;;;;5010595;28;20477;-68
2022/06/02 12:15:46;;;;;;;2.47;1.80;;;24.90;89.70;;;;;;5011106;28;20461;-68
2022/06/02 12:18:32;;;;;;;1.40;1.30;;;25.00;89.90;;;;;;5014006;28;20473;-68
2022/06/02 12:21:26;;;;;;;2.30;2.10;;;24.90;87.80;;;;;;5013986;28;20516;-68
2022/06/02 12:24:30;;;;;;;3.53;2.10;;;24.80;87.70;;;;;;5014319;28;20583;-69
2022/06/02 12:27:34;;;;;;;2.70;1.73;;;24.60;90.10;;;;;;5014034;28;20529;-68
2022/06/02 12:30:25;;;;;;;3.40;1.70;;;24.50;88.10;;;;;;5011405;28;20851;-68
2022/06/02 12:33:07;;;;;;;2.20;1.97;;;24.50;90.30;;;;;;5013999;28;20472;-68
2022/06/02 12:36:19;;;;;;;2.30;2.10;;;24.50;90.10;;;;;;5014218;28;20470;-68
2022/06/02 12:39:10;;;;;;;4.43;2.17;;;24.40;89.60;;;;;;4952760;29;20471;-67
2022/06/02 12:42:11;;;;;;;3.67;2.57;;;24.30;90.60;;;;;;4912111;28;20487;-69
2022/06/02 12:45:06;;;;;;;2.23;1.97;;;24.30;90.80;;;;;;5009426;28;20465;-68
2022/06/02 12:48:00;;;;;;;2.80;2.00;;;24.40;90.50;;;;;;4988158;28;20883;-68
2022/06/02 12:50:51;;;;;;;1.77;1.63;;;24.50;90.80;;;;;;5013942;28;20464;-69
2022/06/02 12:53:54;;;;;;;4.10;2.07;;;24.70;91.80;;;;;;5013750;28;20477;-69
2022/06/02 12:56:47;;;;;;;3.03;1.87;;;24.90;89.90;;;;;;5013879;28;20465;-68
2022/06/02 13:00:03;;;;;;;2.63;2.00;;;25.00;91.30;;;;;;5009672;28;20848;-67
2022/06/02 13:02:46;;;;;;;2.10;1.90;;;25.10;90.50;;;;;;5010896;28;21158;-68
2022/06/02 13:05:48;;;;;;;2.37;1.67;;;25.30;91.10;;;;;;5010623;28;20462;-68
2022/06/02 13:09:01;;;;;;;2.50;1.83;;;25.50;92.30;;;;;;4990274;28;21016;-67
2022/06/02 13:12:04;;;;;;;4.43;2.10;;;25.50;87.00;;;;;;4999668;28;20449;-69
2022/06/02 13:14:58;;;;;;;3.07;2.50;;;25.40;90.40;;;;;;5007366;28;20491;-68
2022/06/02 13:17:59;;;;;;;2.60;1.70;;;25.30;90.60;;;;;;4990649;28;20465;-67
2022/06/02 13:20:44;;;;;;;2.40;1.83;;;25.30;88.40;;;;;;5009650;28;20579;-69
2022/06/02 13:23:39;;;;;;;4.40;2.10;;;25.20;88.80;;;;;;5009005;28;20489;-68
2022/06/02 13:26:34;;;;;;;2.93;1.97;;;24.90;89.20;;;;;;4996512;28;20457;-69
2022/06/02 13:29:31;;;;;;;2.00;1.90;;;24.90;90.50;;;;;;5008306;28;20463;-68
2022/06/02 13:32:33;;;;;;;2.10;1.90;;;24.80;90.00;;;;;;5008862;28;20497;-69
2022/06/02 13:35:31;;;;;;;2.50;2.30;;;24.80;91.40;;;;;;5009096;28;20551;-69
2022/06/02 13:38:30;;;;;;;2.13;1.73;;;24.70;91.80;;;;;;4985968;28;20468;-68
2022/06/02 13:41:15;;;;;;;4.60;1.90;;;24.40;89.50;;;;;;5008947;28;20478;-69
2022/06/02 13:43:56;;;;;;;2.00;1.80;;;24.20;90.50;;;;;;5008846;28;20752;-69
2022/06/02 13:47:16;;;;;;;2.53;2.10;;;24.10;90.20;;;;;;5008985;28;20457;-69
2022/06/02 13:50:27;;;;;;;3.27;2.30;;;23.90;90.30;;;;;;5008535;28;20480;-68
2022/06/02 13:53:37;;;;;;;4.53;2.83;;;23.80;90.70;;;;;;5008460;28;20489;-69
2022/06/02 13:59:31;;;;;;;19.43;5.53;;;23.60;91.10;;;;;;5007869;28;20445;-69
2022/06/02 14:02:18;;;;;;;3.20;2.03;;;23.70;92.20;;;;;;5001287;28;20600;-69
2022/06/02 14:05:01;;;;;;;6.73;2.33;;;23.90;92.10;;;;;;5008227;28;20851;-68
2022/06/02 14:08:07;;;;;;;3.00;2.00;;;24.30;91.80;;;;;;5008606;28;20511;-68
2022/06/02 14:10:59;;;;;;;3.90;2.30;;;24.60;92.30;;;;;;4987388;28;20547;-69
2022/06/02 14:14:05;;;;;;;2.00;1.80;;;24.90;92.70;;;;;;5008383;28;20486;-68
2022/06/02 14:16:44;;;;;;;3.03;1.80;;;25.20;91.10;;;;;;5008227;28;20464;-68
2022/06/02 14:19:27;;;;;;;2.13;1.93;;;25.40;90.00;;;;;;5008586;28;20469;-68
2022/06/02 14:22:04;;;;;;;3.20;1.70;;;25.50;89.10;;;;;;5009280;28;20505;-68
2022/06/02 14:24:39;;;;;;;2.60;1.73;;;25.60;90.30;;;;;;5009467;28;20472;-68
2022/06/02 14:27:23;;;;;;;2.50;1.60;;;25.40;88.90;;;;;;5016575;28;20576;-69
2022/06/02 14:30:03;;;;;;;1.90;1.70;;;25.20;90.00;;;;;;5030254;28;20464;-68
2022/06/02 14:32:42;;;;;;;3.53;1.80;;;24.70;88.50;;;;;;5031408;28;20884;-69
2022/06/02 14:35:42;;;;;;;2.17;1.97;;;24.50;90.40;;;;;;5030692;28;20464;-68
2022/06/02 14:38:26;;;;;;;2.37;1.83;;;24.20;90.10;;;;;;5030703;28;20845;-68
2022/06/02 14:41:00;;;;;;;2.10;1.80;;;23.90;90.70;;;;;;5029776;28;20502;-69
2022/06/02 14:43:50;;;;;;;2.23;1.93;;;23.50;90.00;;;;;;5031111;28;20511;-67
2022/06/02 14:46:59;;;;;;;2.80;2.07;;;23.20;90.30;;;;;;5030726;28;21090;-69
2022/06/02 14:49:42;;;;;;;2.40;2.20;;;23.00;90.50;;;;;;4991616;28;20464;-67
2022/06/02 14:52:23;;;;;;;2.93;1.93;;;22.90;90.70;;;;;;5030516;28;20452;-69
2022/06/02 14:55:02;;;;;;;1.97;1.83;;;22.70;91.00;;;;;;5029936;28;20531;-69